sensor_id;sensor_type;location;lat;lon;timestamp;P1;durP1;ratioP1;P2;durP2;ratioP2
18677;SDS011;9469;51.114;13.914;2023-09-19T00:01:05;5.77;;;4.03;;
18677;SDS011;9469;51.114;13.914;2023-09-19T00:06:13;5.37;;;3.90;;
18677;SDS011;9469;51.114;13.914;2023-09-19T00:11:18;6.10;;;4.27;;
18677;SDS011;9469;51.114;13.914;2023-09-19T00:16:30;6.83;;;4.43;;
18677;SDS011;9469;51.114;13.914;2023-09-19T00:21:36;6.13;;;4.00;;
18677;SDS011;9469;51.114;13.914;2023-09-19T00:26:42;5.73;;;4.27;;
18677;SDS011;9469;51.114;13.914;2023-09-19T00:31:52;5.00;;;4.30;;
18677;SDS011;9469;51.114;13.914;2023-09-19T00:36:59;9.17;;;4.70;;
18677;SDS011;9469;51.114;13.914;2023-09-19T00:42:05;5.30;;;4.33;;
18677;SDS011;9469;51.114;13.914;2023-09-19T00:47:14;4.60;;;4.00;;
18677;SDS011;9469;51.114;13.914;2023-09-19T00:52:20;4.47;;;3.23;;
18677;SDS011;9469;51.114;13.914;2023-09-19T00:57:26;4.97;;;3.03;;
18677;SDS011;9469;51.114;13.914;2023-09-19T01:02:34;6.70;;;3.40;;
18677;SDS011;9469;51.114;13.914;2023-09-19T01:07:43;7.67;;;4.27;;
18677;SDS011;9469;51.114;13.914;2023-09-19T01:12:53;5.63;;;4.50;;
18677;SDS011;9469;51.114;13.914;2023-09-19T01:18:12;5.53;;;4.47;;
18677;SDS011;9469;51.114;13.914;2023-09-19T01:23:28;5.40;;;4.47;;
18677;SDS011;9469;51.114;13.914;2023-09-19T01:28:54;5.80;;;5.20;;
18677;SDS011;9469;51.114;13.914;2023-09-19T01:34:17;8.03;;;4.87;;
18677;SDS011;9469;51.114;13.914;2023-09-19T01:39:22;7.07;;;4.57;;
18677;SDS011;9469;51.114;13.914;2023-09-19T01:44:30;7.30;;;5.20;;
18677;SDS011;9469;51.114;13.914;2023-09-19T01:49:44;5.80;;;4.63;;
18677;SDS011;9469;51.114;13.914;2023-09-19T01:55:01;4.03;;;2.90;;
18677;SDS011;9469;51.114;13.914;2023-09-19T02:00:12;4.00;;;2.40;;
18677;SDS011;9469;51.114;13.914;2023-09-19T02:05:24;5.97;;;2.40;;
18677;SDS011;9469;51.114;13.914;2023-09-19T02:10:30;2.87;;;1.93;;
18677;SDS011;9469;51.114;13.914;2023-09-19T02:15:37;4.03;;;1.80;;
18677;SDS011;9469;51.114;13.914;2023-09-19T02:20:45;4.03;;;1.87;;
18677;SDS011;9469;51.114;13.914;2023-09-19T02:25:53;2.73;;;2.10;;
18677;SDS011;9469;51.114;13.914;2023-09-19T02:31:00;2.87;;;1.97;;
18677;SDS011;9469;51.114;13.914;2023-09-19T02:36:09;3.53;;;1.70;;
18677;SDS011;9469;51.114;13.914;2023-09-19T02:41:15;3.90;;;1.97;;
18677;SDS011;9469;51.114;13.914;2023-09-19T02:46:20;4.43;;;1.93;;
18677;SDS011;9469;51.114;13.914;2023-09-19T02:51:28;4.73;;;1.87;;
18677;SDS011;9469;51.114;13.914;2023-09-19T02:56:34;2.97;;;1.90;;
18677;SDS011;9469;51.114;13.914;2023-09-19T03:01:39;3.00;;;2.13;;
18677;SDS011;9469;51.114;13.914;2023-09-19T03:06:52;4.53;;;2.43;;
18677;SDS011;9469;51.114;13.914;2023-09-19T03:12:04;3.13;;;1.80;;
18677;SDS011;9469;51.114;13.914;2023-09-19T03:17:10;4.23;;;2.70;;
18677;SDS011;9469;51.114;13.914;2023-09-19T03:22:19;3.23;;;2.70;;
18677;SDS011;9469;51.114;13.914;2023-09-19T03:27:29;3.47;;;2.50;;
18677;SDS011;9469;51.114;13.914;2023-09-19T03:32:43;4.07;;;2.43;;
18677;SDS011;9469;51.114;13.914;2023-09-19T03:37:55;3.90;;;2.53;;
18677;SDS011;9469;51.114;13.914;2023-09-19T03:43:01;3.07;;;2.60;;
18677;SDS011;9469;51.114;13.914;2023-09-19T03:48:08;6.00;;;2.70;;
18677;SDS011;9469;51.114;13.914;2023-09-19T03:53:16;4.20;;;2.20;;
18677;SDS011;9469;51.114;13.914;2023-09-19T03:58:22;4.70;;;2.30;;
18677;SDS011;9469;51.114;13.914;2023-09-19T04:03:27;4.33;;;2.97;;
18677;SDS011;9469;51.114;13.914;2023-09-19T04:08:40;2.43;;;1.63;;
18677;SDS011;9469;51.114;13.914;2023-09-19T04:13:46;4.60;;;1.63;;
18677;SDS011;9469;51.114;13.914;2023-09-19T04:18:51;4.47;;;1.93;;
18677;SDS011;9469;51.114;13.914;2023-09-19T04:23:59;3.50;;;1.90;;
18677;SDS011;9469;51.114;13.914;2023-09-19T04:29:04;2.50;;;1.70;;
18677;SDS011;9469;51.114;13.914;2023-09-19T04:34:12;1.67;;;1.33;;
18677;SDS011;9469;51.114;13.914;2023-09-19T04:39:21;1.60;;;1.30;;
18677;SDS011;9469;51.114;13.914;2023-09-19T04:44:28;2.37;;;1.17;;
18677;SDS011;9469;51.114;13.914;2023-09-19T04:49:36;3.23;;;1.50;;
18677;SDS011;9469;51.114;13.914;2023-09-19T04:54:44;3.93;;;1.60;;
18677;SDS011;9469;51.114;13.914;2023-09-19T04:59:50;2.23;;;1.90;;
18677;SDS011;9469;51.114;13.914;2023-09-19T05:04:55;3.07;;;1.43;;
18677;SDS011;9469;51.114;13.914;2023-09-19T05:10:06;2.37;;;1.40;;
18677;SDS011;9469;51.114;13.914;2023-09-19T05:15:14;2.20;;;1.40;;
18677;SDS011;9469;51.114;13.914;2023-09-19T05:20:27;1.90;;;1.70;;
18677;SDS011;9469;51.114;13.914;2023-09-19T05:25:39;2.47;;;1.50;;
18677;SDS011;9469;51.114;13.914;2023-09-19T05:30:46;5.47;;;1.77;;
18677;SDS011;9469;51.114;13.914;2023-09-19T05:35:51;2.27;;;1.20;;
18677;SDS011;9469;51.114;13.914;2023-09-19T05:41:01;1.90;;;1.47;;
18677;SDS011;9469;51.114;13.914;2023-09-19T05:46:06;3.90;;;1.37;;
18677;SDS011;9469;51.114;13.914;2023-09-19T05:51:13;3.50;;;1.40;;
18677;SDS011;9469;51.114;13.914;2023-09-19T05:56:23;3.30;;;1.30;;
18677;SDS011;9469;51.114;13.914;2023-09-19T06:01:30;1.67;;;1.30;;
18677;SDS011;9469;51.114;13.914;2023-09-19T06:06:36;3.90;;;1.53;;
18677;SDS011;9469;51.114;13.914;2023-09-19T06:11:45;2.53;;;1.40;;
18677;SDS011;9469;51.114;13.914;2023-09-19T06:16:53;2.47;;;1.57;;
18677;SDS011;9469;51.114;13.914;2023-09-19T06:21:58;3.13;;;1.40;;
18677;SDS011;9469;51.114;13.914;2023-09-19T06:27:06;2.43;;;1.50;;
18677;SDS011;9469;51.114;13.914;2023-09-19T06:32:12;2.07;;;1.40;;
18677;SDS011;9469;51.114;13.914;2023-09-19T06:37:26;2.30;;;1.17;;
18677;SDS011;9469;51.114;13.914;2023-09-19T06:42:34;2.37;;;1.10;;
18677;SDS011;9469;51.114;13.914;2023-09-19T06:47:47;2.70;;;1.87;;
18677;SDS011;9469;51.114;13.914;2023-09-19T06:52:54;7.00;;;2.37;;
18677;SDS011;9469;51.114;13.914;2023-09-19T06:58:04;6.00;;;2.97;;
18677;SDS011;9469;51.114;13.914;2023-09-19T07:03:13;5.80;;;2.03;;
18677;SDS011;9469;51.114;13.914;2023-09-19T07:08:26;7.87;;;2.93;;
18677;SDS011;9469;51.114;13.914;2023-09-19T07:13:34;4.67;;;1.87;;
18677;SDS011;9469;51.114;13.914;2023-09-19T07:18:42;3.50;;;1.63;;
18677;SDS011;9469;51.114;13.914;2023-09-19T07:23:47;4.90;;;2.03;;
18677;SDS011;9469;51.114;13.914;2023-09-19T07:28:56;2.87;;;1.33;;
18677;SDS011;9469;51.114;13.914;2023-09-19T07:39:51;4.43;;;1.50;;
18677;SDS011;9469;51.114;13.914;2023-09-19T07:45:01;3.97;;;1.33;;
18677;SDS011;9469;51.114;13.914;2023-09-19T07:50:12;4.20;;;1.20;;
18677;SDS011;9469;51.114;13.914;2023-09-19T07:55:26;4.25;;;2.63;;
18677;SDS011;9469;51.114;13.914;2023-09-19T08:00:33;2.95;;;1.00;;
18677;SDS011;9469;51.114;13.914;2023-09-19T08:05:41;3.97;;;1.60;;
18677;SDS011;9469;51.114;13.914;2023-09-19T08:10:52;3.30;;;1.38;;
18677;SDS011;9469;51.114;13.914;2023-09-19T08:16:04;3.17;;;1.10;;
18677;SDS011;9469;51.114;13.914;2023-09-19T08:21:11;1.20;;;0.80;;
18677;SDS011;9469;51.114;13.914;2023-09-19T08:26:18;3.67;;;1.02;;
18677;SDS011;9469;51.114;13.914;2023-09-19T08:31:26;1.05;;;0.77;;
18677;SDS011;9469;51.114;13.914;2023-09-19T08:36:31;1.95;;;0.98;;
18677;SDS011;9469;51.114;13.914;2023-09-19T08:41:38;2.38;;;0.95;;
18677;SDS011;9469;51.114;13.914;2023-09-19T08:46:47;1.23;;;0.80;;
18677;SDS011;9469;51.114;13.914;2023-09-19T08:51:57;1.63;;;0.80;;
18677;SDS011;9469;51.114;13.914;2023-09-19T08:57:12;4.15;;;1.88;;
18677;SDS011;9469;51.114;13.914;2023-09-19T09:02:25;3.78;;;1.10;;
18677;SDS011;9469;51.114;13.914;2023-09-19T09:07:33;2.05;;;1.08;;
18677;SDS011;9469;51.114;13.914;2023-09-19T09:12:39;2.42;;;1.30;;
18677;SDS011;9469;51.114;13.914;2023-09-19T09:17:49;2.65;;;1.50;;
18677;SDS011;9469;51.114;13.914;2023-09-19T09:22:56;1.63;;;1.00;;
18677;SDS011;9469;51.114;13.914;2023-09-19T09:28:05;4.47;;;2.35;;
18677;SDS011;9469;51.114;13.914;2023-09-19T09:33:13;3.95;;;2.15;;
18677;SDS011;9469;51.114;13.914;2023-09-19T09:38:24;2.78;;;1.10;;
18677;SDS011;9469;51.114;13.914;2023-09-19T09:43:35;1.92;;;0.98;;
18677;SDS011;9469;51.114;13.914;2023-09-19T09:48:47;2.80;;;1.10;;
18677;SDS011;9469;51.114;13.914;2023-09-19T09:54:30;1.35;;;0.73;;
18677;SDS011;9469;51.114;13.914;2023-09-19T09:59:47;2.55;;;0.70;;
18677;SDS011;9469;51.114;13.914;2023-09-19T10:04:59;1.52;;;0.85;;
18677;SDS011;9469;51.114;13.914;2023-09-19T10:10:37;2.22;;;0.90;;
18677;SDS011;9469;51.114;13.914;2023-09-19T10:15:56;2.92;;;0.70;;
18677;SDS011;9469;51.114;13.914;2023-09-19T10:21:05;3.47;;;1.00;;
18677;SDS011;9469;51.114;13.914;2023-09-19T10:26:18;2.15;;;1.60;;
18677;SDS011;9469;51.114;13.914;2023-09-19T10:31:26;5.35;;;2.03;;
18677;SDS011;9469;51.114;13.914;2023-09-19T10:36:33;2.28;;;1.08;;
18677;SDS011;9469;51.114;13.914;2023-09-19T10:41:54;1.42;;;0.80;;
18677;SDS011;9469;51.114;13.914;2023-09-19T10:47:01;1.58;;;0.88;;
18677;SDS011;9469;51.114;13.914;2023-09-19T10:52:09;2.70;;;1.30;;
18677;SDS011;9469;51.114;13.914;2023-09-19T10:57:23;3.63;;;1.27;;
18677;SDS011;9469;51.114;13.914;2023-09-19T11:02:30;0.98;;;0.82;;
18677;SDS011;9469;51.114;13.914;2023-09-19T11:07:42;3.50;;;1.90;;
18677;SDS011;9469;51.114;13.914;2023-09-19T11:19:03;3.42;;;1.95;;
18677;SDS011;9469;51.114;13.914;2023-09-19T11:24:29;4.20;;;1.60;;
18677;SDS011;9469;51.114;13.914;2023-09-19T11:29:38;2.05;;;1.42;;
18677;SDS011;9469;51.114;13.914;2023-09-19T11:34:48;3.08;;;1.33;;
18677;SDS011;9469;51.114;13.914;2023-09-19T11:40:05;4.27;;;2.10;;
18677;SDS011;9469;51.114;13.914;2023-09-19T11:51:03;4.13;;;2.28;;
18677;SDS011;9469;51.114;13.914;2023-09-19T11:56:18;4.03;;;2.60;;
18677;SDS011;9469;51.114;13.914;2023-09-19T12:01:29;4.00;;;2.58;;
18677;SDS011;9469;51.114;13.914;2023-09-19T12:06:38;4.33;;;2.00;;
18677;SDS011;9469;51.114;13.914;2023-09-19T12:11:45;2.13;;;1.20;;
18677;SDS011;9469;51.114;13.914;2023-09-19T12:16:53;1.50;;;1.05;;
18677;SDS011;9469;51.114;13.914;2023-09-19T12:22:02;3.90;;;2.03;;
18677;SDS011;9469;51.114;13.914;2023-09-19T12:27:11;5.18;;;1.30;;
18677;SDS011;9469;51.114;13.914;2023-09-19T12:32:17;1.25;;;1.08;;
18677;SDS011;9469;51.114;13.914;2023-09-19T12:37:26;7.53;;;4.03;;
18677;SDS011;9469;51.114;13.914;2023-09-19T12:42:32;3.72;;;1.20;;
18677;SDS011;9469;51.114;13.914;2023-09-19T12:47:38;4.90;;;1.20;;
18677;SDS011;9469;51.114;13.914;2023-09-19T12:52:48;1.23;;;1.02;;
18677;SDS011;9469;51.114;13.914;2023-09-19T12:57:59;6.22;;;1.50;;
18677;SDS011;9469;51.114;13.914;2023-09-19T13:03:18;2.13;;;1.15;;
18677;SDS011;9469;51.114;13.914;2023-09-19T13:08:37;2.30;;;1.10;;
18677;SDS011;9469;51.114;13.914;2023-09-19T13:13:44;2.10;;;1.17;;
18677;SDS011;9469;51.114;13.914;2023-09-19T13:18:56;3.92;;;1.58;;
18677;SDS011;9469;51.114;13.914;2023-09-19T13:29:31;4.53;;;1.37;;
18677;SDS011;9469;51.114;13.914;2023-09-19T13:34:37;2.60;;;1.07;;
18677;SDS011;9469;51.114;13.914;2023-09-19T13:39:46;2.03;;;1.00;;
18677;SDS011;9469;51.114;13.914;2023-09-19T13:44:54;1.93;;;1.07;;
18677;SDS011;9469;51.114;13.914;2023-09-19T13:50:01;3.33;;;1.00;;
18677;SDS011;9469;51.114;13.914;2023-09-19T13:55:12;3.50;;;1.10;;
18677;SDS011;9469;51.114;13.914;2023-09-19T14:00:21;2.73;;;1.10;;
18677;SDS011;9469;51.114;13.914;2023-09-19T14:05:30;4.20;;;0.93;;
18677;SDS011;9469;51.114;13.914;2023-09-19T14:10:38;3.47;;;1.27;;
18677;SDS011;9469;51.114;13.914;2023-09-19T14:15:47;4.33;;;1.13;;
18677;SDS011;9469;51.114;13.914;2023-09-19T14:20:52;3.53;;;1.40;;
18677;SDS011;9469;51.114;13.914;2023-09-19T14:26:03;3.93;;;1.20;;
18677;SDS011;9469;51.114;13.914;2023-09-19T14:31:11;3.53;;;1.10;;
18677;SDS011;9469;51.114;13.914;2023-09-19T14:36:24;2.00;;;1.20;;
18677;SDS011;9469;51.114;13.914;2023-09-19T14:41:52;3.07;;;1.37;;
18677;SDS011;9469;51.114;13.914;2023-09-19T14:46:57;3.63;;;1.50;;
18677;SDS011;9469;51.114;13.914;2023-09-19T14:52:05;2.77;;;1.53;;
18677;SDS011;9469;51.114;13.914;2023-09-19T14:57:14;5.47;;;1.87;;
18677;SDS011;9469;51.114;13.914;2023-09-19T15:07:28;1.43;;;1.20;;
18677;SDS011;9469;51.114;13.914;2023-09-19T15:12:36;3.37;;;1.23;;
18677;SDS011;9469;51.114;13.914;2023-09-19T15:17:42;2.83;;;1.73;;
18677;SDS011;9469;51.114;13.914;2023-09-19T15:22:49;2.00;;;1.50;;
18677;SDS011;9469;51.114;13.914;2023-09-19T15:27:58;4.10;;;1.90;;
18677;SDS011;9469;51.114;13.914;2023-09-19T15:33:09;3.70;;;1.97;;
18677;SDS011;9469;51.114;13.914;2023-09-19T15:38:14;1.73;;;1.43;;
18677;SDS011;9469;51.114;13.914;2023-09-19T15:43:23;2.93;;;1.50;;
18677;SDS011;9469;51.114;13.914;2023-09-19T15:48:28;3.63;;;1.83;;
18677;SDS011;9469;51.114;13.914;2023-09-19T15:53:34;4.73;;;2.07;;
18677;SDS011;9469;51.114;13.914;2023-09-19T15:58:50;1.67;;;1.43;;
18677;SDS011;9469;51.114;13.914;2023-09-19T16:03:57;3.23;;;1.67;;
18677;SDS011;9469;51.114;13.914;2023-09-19T16:09:02;2.93;;;1.73;;
18677;SDS011;9469;51.114;13.914;2023-09-19T16:14:13;3.07;;;1.50;;
18677;SDS011;9469;51.114;13.914;2023-09-19T16:19:22;3.30;;;2.07;;
18677;SDS011;9469;51.114;13.914;2023-09-19T16:24:28;2.47;;;2.10;;
18677;SDS011;9469;51.114;13.914;2023-09-19T16:29:36;3.07;;;1.67;;
18677;SDS011;9469;51.114;13.914;2023-09-19T16:34:42;3.20;;;1.80;;
18677;SDS011;9469;51.114;13.914;2023-09-19T16:39:47;4.03;;;1.90;;
18677;SDS011;9469;51.114;13.914;2023-09-19T16:44:57;6.07;;;2.10;;
18677;SDS011;9469;51.114;13.914;2023-09-19T16:50:03;2.70;;;1.80;;
18677;SDS011;9469;51.114;13.914;2023-09-19T16:55:12;4.63;;;2.17;;
18677;SDS011;9469;51.114;13.914;2023-09-19T17:00:21;3.53;;;1.83;;
18677;SDS011;9469;51.114;13.914;2023-09-19T17:05:29;4.70;;;2.00;;
18677;SDS011;9469;51.114;13.914;2023-09-19T17:10:34;5.40;;;1.97;;
18677;SDS011;9469;51.114;13.914;2023-09-19T17:15:48;3.67;;;1.97;;
18677;SDS011;9469;51.114;13.914;2023-09-19T17:21:05;2.90;;;2.00;;
18677;SDS011;9469;51.114;13.914;2023-09-19T17:26:13;3.63;;;1.80;;
18677;SDS011;9469;51.114;13.914;2023-09-19T17:31:25;2.60;;;1.60;;
18677;SDS011;9469;51.114;13.914;2023-09-19T17:36:35;5.37;;;2.43;;
18677;SDS011;9469;51.114;13.914;2023-09-19T17:41:42;4.13;;;2.13;;
18677;SDS011;9469;51.114;13.914;2023-09-19T17:46:50;4.00;;;2.27;;
18677;SDS011;9469;51.114;13.914;2023-09-19T17:52:00;5.77;;;2.40;;
18677;SDS011;9469;51.114;13.914;2023-09-19T17:57:06;4.30;;;2.30;;
18677;SDS011;9469;51.114;13.914;2023-09-19T18:02:16;2.73;;;1.93;;
18677;SDS011;9469;51.114;13.914;2023-09-19T18:07:22;4.20;;;2.53;;
18677;SDS011;9469;51.114;13.914;2023-09-19T18:12:28;6.27;;;2.40;;
18677;SDS011;9469;51.114;13.914;2023-09-19T18:17:36;4.43;;;2.13;;
18677;SDS011;9469;51.114;13.914;2023-09-19T18:22:46;3.57;;;2.17;;
18677;SDS011;9469;51.114;13.914;2023-09-19T18:27:55;4.23;;;2.60;;
18677;SDS011;9469;51.114;13.914;2023-09-19T18:33:03;5.73;;;2.20;;
18677;SDS011;9469;51.114;13.914;2023-09-19T18:38:09;5.47;;;2.80;;
18677;SDS011;9469;51.114;13.914;2023-09-19T18:43:17;5.20;;;3.00;;
18677;SDS011;9469;51.114;13.914;2023-09-19T18:48:27;7.70;;;3.00;;
18677;SDS011;9469;51.114;13.914;2023-09-19T18:53:37;5.50;;;2.83;;
18677;SDS011;9469;51.114;13.914;2023-09-19T18:58:49;3.73;;;2.37;;
18677;SDS011;9469;51.114;13.914;2023-09-19T19:03:59;4.73;;;2.93;;
18677;SDS011;9469;51.114;13.914;2023-09-19T19:09:18;6.10;;;2.83;;
18677;SDS011;9469;51.114;13.914;2023-09-19T19:14:26;6.07;;;2.77;;
18677;SDS011;9469;51.114;13.914;2023-09-19T19:19:34;4.47;;;2.43;;
18677;SDS011;9469;51.114;13.914;2023-09-19T19:24:41;5.00;;;2.40;;
18677;SDS011;9469;51.114;13.914;2023-09-19T19:29:48;5.03;;;2.37;;
18677;SDS011;9469;51.114;13.914;2023-09-19T19:34:57;2.40;;;2.00;;
18677;SDS011;9469;51.114;13.914;2023-09-19T19:40:12;5.53;;;2.50;;
18677;SDS011;9469;51.114;13.914;2023-09-19T19:45:19;5.73;;;2.47;;
18677;SDS011;9469;51.114;13.914;2023-09-19T19:50:29;5.60;;;2.80;;
18677;SDS011;9469;51.114;13.914;2023-09-19T19:55:37;5.10;;;2.43;;
18677;SDS011;9469;51.114;13.914;2023-09-19T20:00:44;4.87;;;2.50;;
18677;SDS011;9469;51.114;13.914;2023-09-19T20:05:53;5.03;;;2.87;;
18677;SDS011;9469;51.114;13.914;2023-09-19T20:11:03;5.13;;;2.30;;
18677;SDS011;9469;51.114;13.914;2023-09-19T20:16:12;4.97;;;2.50;;
18677;SDS011;9469;51.114;13.914;2023-09-19T20:21:21;6.30;;;2.60;;
18677;SDS011;9469;51.114;13.914;2023-09-19T20:26:26;5.17;;;2.30;;
18677;SDS011;9469;51.114;13.914;2023-09-19T20:31:34;5.93;;;2.37;;
18677;SDS011;9469;51.114;13.914;2023-09-19T20:36:48;6.10;;;2.47;;
18677;SDS011;9469;51.114;13.914;2023-09-19T20:41:54;4.17;;;2.20;;
18677;SDS011;9469;51.114;13.914;2023-09-19T20:46:59;5.60;;;2.10;;
18677;SDS011;9469;51.114;13.914;2023-09-19T20:52:10;2.70;;;2.00;;
18677;SDS011;9469;51.114;13.914;2023-09-19T20:57:16;4.33;;;2.07;;
18677;SDS011;9469;51.114;13.914;2023-09-19T21:02:22;3.73;;;2.20;;
18677;SDS011;9469;51.114;13.914;2023-09-19T21:07:33;5.23;;;2.40;;
18677;SDS011;9469;51.114;13.914;2023-09-19T21:12:42;5.23;;;2.70;;
18677;SDS011;9469;51.114;13.914;2023-09-19T21:17:49;5.90;;;2.87;;
18677;SDS011;9469;51.114;13.914;2023-09-19T21:23:00;4.53;;;3.10;;
18677;SDS011;9469;51.114;13.914;2023-09-19T21:28:08;6.57;;;2.43;;
18677;SDS011;9469;51.114;13.914;2023-09-19T21:33:16;6.70;;;2.50;;
18677;SDS011;9469;51.114;13.914;2023-09-19T21:38:27;5.03;;;2.10;;
18677;SDS011;9469;51.114;13.914;2023-09-19T21:43:33;3.33;;;2.10;;
18677;SDS011;9469;51.114;13.914;2023-09-19T21:48:39;2.83;;;2.03;;
18677;SDS011;9469;51.114;13.914;2023-09-19T21:53:48;6.03;;;2.17;;
18677;SDS011;9469;51.114;13.914;2023-09-19T21:58:54;4.80;;;2.00;;
18677;SDS011;9469;51.114;13.914;2023-09-19T22:04:00;4.40;;;2.40;;
18677;SDS011;9469;51.114;13.914;2023-09-19T22:09:08;2.33;;;1.80;;
18677;SDS011;9469;51.114;13.914;2023-09-19T22:14:13;3.33;;;2.17;;
18677;SDS011;9469;51.114;13.914;2023-09-19T22:19:18;2.37;;;1.80;;
18677;SDS011;9469;51.114;13.914;2023-09-19T22:24:27;3.00;;;1.90;;
18677;SDS011;9469;51.114;13.914;2023-09-19T22:29:32;6.27;;;2.23;;
18677;SDS011;9469;51.114;13.914;2023-09-19T22:34:38;4.30;;;2.10;;
18677;SDS011;9469;51.114;13.914;2023-09-19T22:39:45;8.20;;;2.37;;
18677;SDS011;9469;51.114;13.914;2023-09-19T22:44:51;4.00;;;2.00;;
18677;SDS011;9469;51.114;13.914;2023-09-19T22:49:56;3.80;;;1.97;;
18677;SDS011;9469;51.114;13.914;2023-09-19T22:55:11;5.37;;;1.70;;
18677;SDS011;9469;51.114;13.914;2023-09-19T23:00:25;2.23;;;1.40;;
18677;SDS011;9469;51.114;13.914;2023-09-19T23:05:34;7.60;;;2.30;;
18677;SDS011;9469;51.114;13.914;2023-09-19T23:10:44;5.03;;;1.70;;
18677;SDS011;9469;51.114;13.914;2023-09-19T23:15:54;6.00;;;1.83;;
18677;SDS011;9469;51.114;13.914;2023-09-19T23:21:00;4.73;;;1.67;;
18677;SDS011;9469;51.114;13.914;2023-09-19T23:26:16;4.00;;;1.83;;
18677;SDS011;9469;51.114;13.914;2023-09-19T23:31:22;4.37;;;1.90;;
18677;SDS011;9469;51.114;13.914;2023-09-19T23:36:27;2.67;;;1.43;;
18677;SDS011;9469;51.114;13.914;2023-09-19T23:41:37;2.83;;;1.43;;
18677;SDS011;9469;51.114;13.914;2023-09-19T23:46:44;3.10;;;1.50;;
18677;SDS011;9469;51.114;13.914;2023-09-19T23:51:56;3.40;;;1.80;;
18677;SDS011;9469;51.114;13.914;2023-09-19T23:57:05;4.03;;;1.73;;
